首页
METAR-TAF:

METAR-TAF

机场 :

香港國際機場

香港, 中华人民共和国

纬度: 22-19N, 经度: 113-55E, 海拔: 9米

当前天气观测

该预报发布于33分钟前的07:30 UTC
风速10节,风向西转西南,在西南西之间变化
温度 35°C
湿度 47%
气压 1009 hPa
能见度10公里或以上
少量云层高于3000英尺

METAR: VHHH 220730Z 25010KT 220V280 9999 FEW030 35/22 Q1009 NOSIG

时间: 16:03 (08:03 UTC)

预报

该预报发布于3小时和3分钟前的05:00 UTC
预报有效从22日的 06点(UTC)到 23日的 12点(UTC)
风速5节,风向多变
能見度: 9000
少量云层高于2500英尺
短暂存在
从 22日的 06点(UTC)到 22日的 10点(UTC)
风速10节,风向南转西南
短暂存在
从 23日的 00点(UTC)到 23日的 10点(UTC)
风速10节,风向西转西北

TAF: VHHH 220500Z 2206/2312 VRB05KT 9000 FEW025 TX35/2207Z TX36/2306Z TN28/2222Z TEMPO 2206/2210 21010KT TEMPO 2300/2310 29010KT

超过4000个机场的气象观测和天气预报(METAR&TAF报告)。

可查询的气象台以黄色和红色小点在地图上表示。

将鼠标移到小点上方,可查看气象台名称。

然后点击查看天气观测和预报。

如需切换地图:点击带黑十字的绿色按钮放大地图;点击带横线的绿色按钮缩小地图;或者点击绿色箭头查看邻近地区的地图。


METAR-TAF: